createdAt,value
2022-12-05T00:01:15.158Z,87.73
2022-12-05T00:04:15.402Z,87.82
2022-12-05T00:09:44.693Z,88.04
2022-12-05T00:12:36.672Z,87.63
2022-12-05T00:15:13.530Z,88.08
2022-12-05T00:18:09.240Z,88.21
2022-12-05T00:20:42.939Z,88.38
2022-12-05T00:25:06.108Z,88.81
2022-12-05T00:26:39.028Z,88.62
2022-12-05T00:29:17.320Z,88.38
2022-12-05T00:32:56.852Z,88.30
2022-12-05T00:38:35.570Z,87.95
2022-12-05T00:41:18.467Z,88.05
2022-12-05T00:43:51.328Z,88.50
2022-12-05T00:46:21.959Z,88.58
2022-12-05T00:48:54.271Z,88.83
2022-12-05T00:51:23.460Z,88.49
2022-12-05T00:53:54.601Z,88.15
2022-12-05T00:56:23.619Z,88.34
2022-12-05T00:58:51.610Z,88.00
2022-12-05T01:01:20.461Z,87.83
2022-12-05T01:03:50.760Z,88.27
2022-12-05T01:06:28.200Z,88.68
2022-12-05T01:08:56.401Z,88.28
2022-12-05T01:11:24.410Z,88.38
2022-12-05T01:13:51.609Z,88.94
2022-12-05T01:16:25.959Z,89.06
2022-12-05T01:18:53.152Z,89.19
2022-12-05T01:21:20.539Z,88.86
2022-12-05T01:23:47.960Z,88.41
2022-12-05T01:26:15.978Z,87.78
2022-12-05T01:28:43.984Z,87.65
2022-12-05T01:31:17.803Z,87.81
2022-12-05T01:33:45.629Z,88.52
2022-12-05T01:36:13.190Z,88.89
2022-12-05T01:38:41.397Z,89.04
2022-12-05T01:41:16.483Z,89.14
2022-12-05T01:43:55.500Z,88.82
2022-12-05T01:46:31.499Z,88.67
2022-12-05T01:49:02.667Z,88.68
2022-12-05T01:51:41.669Z,89.05
2022-12-05T01:54:09.860Z,89.33
2022-12-05T01:56:40.421Z,89.58
2022-12-05T01:59:12.269Z,89.36
2022-12-05T02:02:18.068Z,89.44
2022-12-05T02:04:54.920Z,89.21
2022-12-05T02:07:29.781Z,90.01
2022-12-05T02:09:57.443Z,89.81
2022-12-05T02:12:26.370Z,89.59
2022-12-05T02:15:03.060Z,90.17
2022-12-05T02:17:33.374Z,90.69
2022-12-05T02:20:01.680Z,90.64
2022-12-05T02:22:32.535Z,90.58
2022-12-05T02:25:03.739Z,90.82
2022-12-05T02:27:46.179Z,90.44
2022-12-05T02:30:16.571Z,89.93
2022-12-05T02:32:43.961Z,90.58
2022-12-05T02:35:14.860Z,90.03
2022-12-05T02:37:45.653Z,90.37
2022-12-05T02:40:57.845Z,90.17
2022-12-05T02:43:26.589Z,90.28
2022-12-05T02:45:57.276Z,90.33
2022-12-05T02:48:59.369Z,90.41
2022-12-05T02:51:30.239Z,90.53
2022-12-05T02:54:00.214Z,90.38
2022-12-05T02:56:27.839Z,90.20
2022-12-05T02:58:57.329Z,89.80
2022-12-05T03:01:25.766Z,89.98
2022-12-05T03:03:54.734Z,89.45
2022-12-05T03:06:21.867Z,88.94
2022-12-05T03:08:53.815Z,88.72
2022-12-05T03:11:21.095Z,88.58
2022-12-05T03:14:02.075Z,88.45
2022-12-05T03:16:34.592Z,88.01
2022-12-05T03:19:06.178Z,88.24
2022-12-05T03:21:37.754Z,88.58
2022-12-05T03:24:08.869Z,88.22
2022-12-05T03:26:47.679Z,88.15
2022-12-05T03:29:23.826Z,88.40
2022-12-05T03:32:00.158Z,88.59
2022-12-05T03:34:39.255Z,88.82
2022-12-05T03:37:12.164Z,89.05
2022-12-05T03:39:44.428Z,88.50
2022-12-05T03:42:16.360Z,89.08
2022-12-05T03:44:48.374Z,89.17
2022-12-05T03:47:24.217Z,89.65
2022-12-05T03:49:53.049Z,89.84
2022-12-05T03:52:30.530Z,89.66
2022-12-05T03:55:00.344Z,89.18
2022-12-05T03:57:29.951Z,89.22
2022-12-05T04:00:02.285Z,89.13
2022-12-05T04:02:35.654Z,89.38
2022-12-05T04:05:06.988Z,88.80
2022-12-05T04:07:43.682Z,89.27
2022-12-05T04:10:13.542Z,89.48
2022-12-05T04:12:49.239Z,88.79
2022-12-05T04:15:19.610Z,89.47
2022-12-05T04:17:53.746Z,89.73
2022-12-05T04:20:33.229Z,89.72
2022-12-05T04:23:08.051Z,87.66
2022-12-05T04:28:59.350Z,88.13
2022-12-05T04:31:30.023Z,88.38
2022-12-05T04:34:06.693Z,88.17
2022-12-05T04:36:45.544Z,87.94
2022-12-05T04:42:31.829Z,86.30
2022-12-05T04:45:04.623Z,86.35
2022-12-05T04:47:36.905Z,86.09
2022-12-05T04:50:05.246Z,85.91
2022-12-05T04:52:39.215Z,85.91
2022-12-05T04:55:17.858Z,86.60
2022-12-05T04:57:45.052Z,87.02
2022-12-05T05:00:12.939Z,86.87
2022-12-05T05:02:56.371Z,86.57
2022-12-05T05:05:23.818Z,86.28
2022-12-05T05:07:52.174Z,87.07
2022-12-05T05:10:23.604Z,86.69
2022-12-05T05:12:58.329Z,86.66
2022-12-05T05:15:25.389Z,85.94
2022-12-05T05:18:00.087Z,86.22
2022-12-05T05:20:28.384Z,85.54
2022-12-05T05:22:56.187Z,85.96
2022-12-05T05:25:23.659Z,86.53
2022-12-05T05:27:52.307Z,86.25
2022-12-05T05:30:19.816Z,85.95
2022-12-05T05:32:49.700Z,86.11
2022-12-05T05:35:16.790Z,85.36
2022-12-05T05:37:43.639Z,85.71
2022-12-05T05:40:13.561Z,85.48
2022-12-05T05:42:44.444Z,85.46
2022-12-05T05:45:12.056Z,84.16
2022-12-05T05:47:39.180Z,84.68
2022-12-05T05:50:06.797Z,85.04
2022-12-05T05:52:35.144Z,85.56
2022-12-05T05:55:02.850Z,85.19
2022-12-05T06:00:51.069Z,82.93
2022-12-05T06:03:18.059Z,83.09
2022-12-05T06:05:50.067Z,83.22
2022-12-05T06:08:19.967Z,83.00
2022-12-05T06:11:26.261Z,83.22
2022-12-05T06:13:58.395Z,82.29
2022-12-05T06:16:25.652Z,82.39
2022-12-05T06:18:56.319Z,82.75
2022-12-05T06:21:32.789Z,82.96
2022-12-05T06:24:02.859Z,82.17
2022-12-05T06:26:29.684Z,82.50
2022-12-05T06:29:04.061Z,81.50
2022-12-05T06:31:38.176Z,81.74
2022-12-05T06:34:05.352Z,81.32
2022-12-05T06:36:32.434Z,81.65
2022-12-05T06:39:00.463Z,82.35
2022-12-05T06:41:29.883Z,81.92
2022-12-05T06:47:15.339Z,81.15
2022-12-05T06:49:42.465Z,81.99
2022-12-05T06:52:12.227Z,80.59
2022-12-05T06:54:42.364Z,80.74
2022-12-05T06:57:10.230Z,80.21
2022-12-05T07:00:24.954Z,80.27
2022-12-05T07:02:52.919Z,81.17
2022-12-05T07:05:30.669Z,80.37
2022-12-05T07:07:57.730Z,80.38
2022-12-05T07:10:24.676Z,80.67
2022-12-05T07:12:51.669Z,80.72
2022-12-05T07:15:18.829Z,80.43
2022-12-05T07:17:46.805Z,80.59
2022-12-05T07:20:18.075Z,80.65
2022-12-05T07:22:46.350Z,81.25
2022-12-05T07:25:13.479Z,80.82
2022-12-05T07:27:40.571Z,80.47
2022-12-05T07:30:09.300Z,80.46
2022-12-05T07:32:36.409Z,79.86
2022-12-05T07:35:10.850Z,80.36
2022-12-05T07:37:44.389Z,80.66
2022-12-05T07:40:15.017Z,79.58
2022-12-05T07:42:45.105Z,79.47
2022-12-05T07:51:48.438Z,80.46
2022-12-05T07:54:15.574Z,80.27
2022-12-05T07:56:47.510Z,80.68
2022-12-05T07:59:20.940Z,81.07
2022-12-05T08:01:48.060Z,81.11
2022-12-05T08:04:15.950Z,81.11
2022-12-05T08:06:43.236Z,81.30
2022-12-05T08:09:10.430Z,80.97
2022-12-05T08:11:38.499Z,81.23
2022-12-05T08:14:28.800Z,81.98
2022-12-05T08:20:17.830Z,81.64
2022-12-05T08:22:44.937Z,81.64
2022-12-05T08:25:16.119Z,81.90
2022-12-05T08:28:06.534Z,81.40
2022-12-05T08:34:51.710Z,81.52
2022-12-05T08:37:18.776Z,81.99
2022-12-05T08:39:49.494Z,81.24
2022-12-05T08:42:21.169Z,81.36
2022-12-05T08:44:51.459Z,81.04
2022-12-05T08:47:18.505Z,81.42
2022-12-05T08:49:48.676Z,81.17
2022-12-05T08:52:15.977Z,81.43
2022-12-05T08:54:46.319Z,82.33
2022-12-05T08:57:13.589Z,81.73
2022-12-05T08:59:40.775Z,81.64
2022-12-05T09:02:08.949Z,82.07
2022-12-05T09:04:36.116Z,84.50
2022-12-05T09:07:16.035Z,83.61
2022-12-05T09:09:43.161Z,83.35
2022-12-05T09:12:10.040Z,82.54
2022-12-05T09:14:37.105Z,82.97
2022-12-05T09:17:06.195Z,81.77
2022-12-05T09:19:33.264Z,81.69
2022-12-05T09:22:01.972Z,81.78
2022-12-05T09:24:29.095Z,81.92
2022-12-05T09:26:58.009Z,82.00
2022-12-05T09:29:25.955Z,82.64
2022-12-05T09:31:54.521Z,82.56
2022-12-05T09:34:21.730Z,82.77
2022-12-05T09:37:05.545Z,82.32
2022-12-05T09:39:39.848Z,82.22
2022-12-05T09:42:26.680Z,81.42
2022-12-05T09:45:02.857Z,82.03
2022-12-05T09:47:39.795Z,82.26
2022-12-05T09:50:14.275Z,82.10
2022-12-05T09:52:46.136Z,81.41
2022-12-05T09:55:15.594Z,80.96
2022-12-05T09:57:55.129Z,80.91
2022-12-05T10:00:22.419Z,81.28
2022-12-05T10:02:59.195Z,81.66
2022-12-05T10:05:31.049Z,80.89
2022-12-05T10:08:07.876Z,80.85
2022-12-05T10:10:44.081Z,81.37
2022-12-05T10:13:14.251Z,80.90
2022-12-05T10:15:45.872Z,79.90
2022-12-05T10:18:13.509Z,80.44
2022-12-05T10:20:43.729Z,79.78
2022-12-05T10:23:34.709Z,80.33
2022-12-05T10:26:07.661Z,79.98
2022-12-05T10:28:41.367Z,80.68
2022-12-05T10:31:12.213Z,79.57
2022-12-05T10:33:42.430Z,79.74
2022-12-05T10:36:10.515Z,80.07
2022-12-05T10:38:37.740Z,80.27
2022-12-05T10:41:07.995Z,80.61
2022-12-05T10:43:37.809Z,80.24
2022-12-05T10:46:10.650Z,79.69
2022-12-05T10:48:42.136Z,79.18
2022-12-05T10:51:15.431Z,79.96
2022-12-05T10:53:42.979Z,79.88
2022-12-05T10:56:30.129Z,80.56
2022-12-05T10:58:59.874Z,80.04
2022-12-05T11:01:30.531Z,78.98
2022-12-05T11:04:12.011Z,79.02
2022-12-05T11:06:50.482Z,79.30
2022-12-05T11:09:19.859Z,79.29
2022-12-05T11:11:58.290Z,79.64
2022-12-05T11:14:26.422Z,79.26
2022-12-05T11:16:54.941Z,79.30
2022-12-05T11:19:22.297Z,79.58
2022-12-05T11:21:49.855Z,79.73
2022-12-05T11:24:24.020Z,79.97
2022-12-05T11:26:51.163Z,80.40
2022-12-05T11:29:30.236Z,80.47
2022-12-05T11:32:00.646Z,80.63
2022-12-05T11:34:32.080Z,81.18
2022-12-05T11:37:05.474Z,80.77
2022-12-05T11:39:37.274Z,79.89
2022-12-05T11:42:16.594Z,80.24
2022-12-05T11:45:27.350Z,80.43
2022-12-05T11:47:59.616Z,81.07
2022-12-05T11:50:30.077Z,81.36
2022-12-05T11:52:57.438Z,81.26
2022-12-05T11:55:29.869Z,81.66
2022-12-05T11:58:14.254Z,80.81
2022-12-05T12:00:44.421Z,81.32
2022-12-05T12:03:22.081Z,81.03
2022-12-05T12:06:01.704Z,81.28
2022-12-05T12:08:34.058Z,81.15
2022-12-05T12:11:04.294Z,80.62
2022-12-05T12:13:43.057Z,80.89
2022-12-05T12:16:21.405Z,81.02
2022-12-05T12:18:49.808Z,80.73
2022-12-05T12:24:38.528Z,80.45
2022-12-05T12:27:21.736Z,81.12
2022-12-05T12:30:01.475Z,81.76
2022-12-05T12:32:40.232Z,81.98
2022-12-05T12:35:10.637Z,82.61
2022-12-05T12:37:48.372Z,83.00
2022-12-05T12:40:33.100Z,82.69
2022-12-05T12:43:01.300Z,82.41
2022-12-05T12:45:38.442Z,81.94
2022-12-05T12:48:13.197Z,82.43
2022-12-05T12:50:44.277Z,82.18
2022-12-05T12:53:13.014Z,82.23
2022-12-05T12:55:45.303Z,82.61
2022-12-05T12:58:22.460Z,82.63
2022-12-05T13:00:51.039Z,81.47
2022-12-05T13:03:21.937Z,81.18
2022-12-05T13:05:50.790Z,81.60
2022-12-05T13:08:25.368Z,81.99
2022-12-05T13:10:53.286Z,82.02
2022-12-05T13:13:25.397Z,80.89
2022-12-05T13:15:55.230Z,81.05
2022-12-05T13:18:28.559Z,81.02
2022-12-05T13:20:58.117Z,81.30
2022-12-05T13:23:28.235Z,81.98
2022-12-05T13:25:57.076Z,81.87
2022-12-05T13:28:28.098Z,80.69
2022-12-05T13:31:03.236Z,80.08
2022-12-05T13:33:35.994Z,81.65
2022-12-05T13:36:17.361Z,79.55
2022-12-05T13:38:54.557Z,80.10
2022-12-05T13:41:37.535Z,80.21
2022-12-05T13:44:12.774Z,80.98
2022-12-05T13:46:43.552Z,81.33
2022-12-05T13:49:19.901Z,81.65
2022-12-05T13:51:47.545Z,80.71
2022-12-05T13:54:15.952Z,81.05
2022-12-05T13:56:48.036Z,80.54
2022-12-05T13:59:35.056Z,79.85
2022-12-05T14:02:34.830Z,80.42
2022-12-05T14:05:07.935Z,81.12
2022-12-05T14:07:40.445Z,79.92
2022-12-05T14:10:08.279Z,80.20
2022-12-05T14:12:46.746Z,80.44
2022-12-05T14:15:34.218Z,80.70
2022-12-05T14:18:13.291Z,80.81
2022-12-05T14:20:52.854Z,81.83
2022-12-05T14:23:21.460Z,82.37
2022-12-05T14:25:59.535Z,82.51
2022-12-05T14:28:38.425Z,82.72
2022-12-05T14:31:15.020Z,83.61
2022-12-05T14:33:45.055Z,83.53
2022-12-05T14:36:16.901Z,82.99
2022-12-05T14:38:44.926Z,82.31
2022-12-05T14:41:24.484Z,81.87
2022-12-05T14:43:53.981Z,82.00
2022-12-05T14:46:26.914Z,81.61
2022-12-05T14:48:59.275Z,81.22
2022-12-05T14:51:31.253Z,81.00
2022-12-05T14:57:50.451Z,81.37
2022-12-05T15:00:25.436Z,80.66
2022-12-05T15:02:56.055Z,81.61
2022-12-05T15:29:28.500Z,80.88
2022-12-05T15:31:59.374Z,81.14
2022-12-05T15:34:29.734Z,80.89
2022-12-05T15:37:03.090Z,81.26
2022-12-05T15:39:30.696Z,82.00
2022-12-05T15:41:58.596Z,81.75
2022-12-05T15:44:34.276Z,81.80
2022-12-05T15:47:05.071Z,82.78
2022-12-05T15:49:32.601Z,83.12
2022-12-05T15:52:05.852Z,82.58
2022-12-05T15:54:35.130Z,82.60
2022-12-05T15:57:15.386Z,83.14
2022-12-05T15:59:48.145Z,82.22
2022-12-05T16:02:20.245Z,82.57
2022-12-05T16:04:51.066Z,82.81
2022-12-05T16:07:19.728Z,83.31
2022-12-05T16:09:48.419Z,84.19
2022-12-05T16:12:18.514Z,84.29
2022-12-05T16:14:59.464Z,84.03
2022-12-05T16:17:29.867Z,84.01
2022-12-05T16:20:11.425Z,84.28
2022-12-05T16:22:44.442Z,83.87
2022-12-05T16:25:14.965Z,84.01
2022-12-05T16:27:42.928Z,84.79
2022-12-05T16:30:14.166Z,84.80
2022-12-05T16:32:43.001Z,85.63
2022-12-05T16:35:20.424Z,85.60
2022-12-05T16:37:49.000Z,83.77
2022-12-05T16:40:24.203Z,84.25
2022-12-05T16:43:02.246Z,83.81
2022-12-05T16:45:39.530Z,83.67
2022-12-05T16:48:15.391Z,84.24
2022-12-05T16:50:43.555Z,83.46
2022-12-05T16:53:11.537Z,84.08
2022-12-05T16:55:39.668Z,84.04
2022-12-05T16:58:08.002Z,84.92
2022-12-05T17:00:35.926Z,84.51
2022-12-05T17:03:32.225Z,84.35
2022-12-05T17:05:51.601Z,84.33
2022-12-05T17:08:19.901Z,84.03
2022-12-05T17:10:47.768Z,83.50
2022-12-05T17:13:19.264Z,83.56
2022-12-05T17:15:47.272Z,83.74
2022-12-05T17:18:16.944Z,83.24
2022-12-05T17:20:46.473Z,83.78
2022-12-05T17:23:16.187Z,84.23
2022-12-05T17:25:52.491Z,83.49
2022-12-05T17:28:20.028Z,83.58
2022-12-05T17:30:48.233Z,83.98
2022-12-05T17:33:16.986Z,83.94
2022-12-05T17:35:45.315Z,83.83
2022-12-05T17:38:13.079Z,84.26
2022-12-05T17:40:41.337Z,84.23
2022-12-05T17:43:11.505Z,84.48
2022-12-05T17:45:39.385Z,84.93
2022-12-05T17:48:07.242Z,84.82
2022-12-05T17:50:35.012Z,85.40
2022-12-05T17:53:07.393Z,84.65
2022-12-05T17:55:35.880Z,85.10
2022-12-05T17:58:05.819Z,85.20
2022-12-05T18:00:34.705Z,83.31
2022-12-05T18:03:06.517Z,83.31
2022-12-05T18:05:34.323Z,83.34
2022-12-05T18:08:02.068Z,83.51
2022-12-05T18:10:30.522Z,84.02
2022-12-05T18:12:57.888Z,83.85
2022-12-05T18:15:25.501Z,83.26
2022-12-05T18:17:52.933Z,83.34
2022-12-05T18:20:20.154Z,83.70
2022-12-05T18:22:47.497Z,82.50
2022-12-05T18:25:14.915Z,82.44
2022-12-05T18:27:42.477Z,83.18
2022-12-05T18:30:10.284Z,83.45
2022-12-05T18:32:38.273Z,83.19
2022-12-05T18:35:12.576Z,83.12
2022-12-05T18:37:41.502Z,82.78
2022-12-05T18:40:09.748Z,82.97
2022-12-05T18:42:37.672Z,82.70
2022-12-05T18:45:06.268Z,83.26
2022-12-05T18:47:33.732Z,83.21
2022-12-05T18:50:02.400Z,82.56
2022-12-05T18:52:30.246Z,83.24
2022-12-05T18:55:16.227Z,82.56
2022-12-05T18:57:45.083Z,83.44
2022-12-05T19:00:13.537Z,83.90
2022-12-05T19:02:41.897Z,83.80
2022-12-05T19:05:09.823Z,83.21
2022-12-05T19:07:37.307Z,82.97
2022-12-05T19:10:05.637Z,82.65
2022-12-05T19:12:33.506Z,83.21
2022-12-05T19:15:01.399Z,83.31
2022-12-05T19:17:29.663Z,83.25
2022-12-05T19:19:59.323Z,83.66
2022-12-05T19:22:27.865Z,83.95
2022-12-05T19:24:55.408Z,83.91
2022-12-05T19:27:23.286Z,83.60
2022-12-05T19:29:50.696Z,83.52
2022-12-05T19:32:18.012Z,82.88
2022-12-05T19:34:47.051Z,82.95
2022-12-05T19:37:14.648Z,84.13
2022-12-05T19:39:42.850Z,83.93
2022-12-05T19:42:10.461Z,83.89
2022-12-05T19:44:38.155Z,84.19
2022-12-05T19:47:05.961Z,84.69
2022-12-05T19:49:33.631Z,84.15
2022-12-05T19:52:01.007Z,84.26
2022-12-05T19:54:28.544Z,84.42
2022-12-05T19:56:59.055Z,84.84
2022-12-05T19:59:27.905Z,84.94
2022-12-05T20:01:55.746Z,84.94
2022-12-05T20:04:23.246Z,84.65
2022-12-05T20:06:50.619Z,85.80
2022-12-05T20:09:20.098Z,84.95
2022-12-05T20:11:54.162Z,84.69
2022-12-05T20:14:22.680Z,84.59
2022-12-05T20:16:50.183Z,84.54
2022-12-05T20:19:17.688Z,84.71
2022-12-05T20:21:45.402Z,84.66
2022-12-05T20:24:13.211Z,84.23
2022-12-05T20:26:41.879Z,85.17
2022-12-05T20:29:09.490Z,85.50
2022-12-05T20:31:38.547Z,85.37
2022-12-05T20:34:06.668Z,84.84
2022-12-05T20:36:35.758Z,84.48
2022-12-05T20:39:05.334Z,84.48
2022-12-05T20:41:33.228Z,84.17
2022-12-05T20:44:02.739Z,84.27
2022-12-05T20:46:30.879Z,84.53
2022-12-05T20:49:01.552Z,84.27
2022-12-05T20:51:30.056Z,83.71
2022-12-05T20:53:59.132Z,83.64
2022-12-05T20:56:29.259Z,84.01
2022-12-05T20:58:58.233Z,83.65
2022-12-05T21:01:26.703Z,84.01
2022-12-05T21:03:54.912Z,84.85
2022-12-05T21:06:24.141Z,85.16
2022-12-05T21:08:52.520Z,85.05
2022-12-05T21:11:20.105Z,84.38
2022-12-05T21:13:47.655Z,83.78
2022-12-05T21:16:18.399Z,84.03
2022-12-05T21:18:46.004Z,82.80
2022-12-05T21:21:15.465Z,82.81
2022-12-05T21:23:43.485Z,83.24
2022-12-05T21:26:12.521Z,82.70
2022-12-05T21:28:40.203Z,82.37
2022-12-05T21:31:10.784Z,83.06
2022-12-05T21:33:38.548Z,83.47
2022-12-05T21:36:06.127Z,83.30
2022-12-05T21:38:33.349Z,83.16
2022-12-05T21:41:00.939Z,81.63
2022-12-05T21:43:28.446Z,81.97
2022-12-05T21:45:56.342Z,82.63
2022-12-05T21:48:24.959Z,82.20
2022-12-05T21:50:52.694Z,81.55
2022-12-05T21:53:20.439Z,81.94
2022-12-05T21:55:48.290Z,82.08
2022-12-05T21:58:15.472Z,81.50
2022-12-05T22:00:43.458Z,81.19
2022-12-05T22:03:14.293Z,80.98
2022-12-05T22:05:41.723Z,80.98
2022-12-05T22:08:09.386Z,81.48
2022-12-05T22:10:36.592Z,81.57
2022-12-05T22:13:05.179Z,81.97
2022-12-05T22:15:32.440Z,81.67
2022-12-05T22:17:59.593Z,82.71
2022-12-05T22:20:26.649Z,81.30
2022-12-05T22:22:53.871Z,81.55
2022-12-05T22:25:21.075Z,81.39
2022-12-05T22:27:48.202Z,81.26
2022-12-05T22:30:15.253Z,81.09
2022-12-05T22:32:42.313Z,80.65
2022-12-05T22:35:09.578Z,81.02
2022-12-05T22:37:36.739Z,81.27
2022-12-05T22:40:04.253Z,82.16
2022-12-05T22:42:31.463Z,81.33
2022-12-05T22:44:58.653Z,81.45
2022-12-05T22:47:25.515Z,81.63
2022-12-05T22:49:52.521Z,80.97
2022-12-05T22:52:19.676Z,81.47
2022-12-05T22:54:46.603Z,81.99
2022-12-05T22:57:13.464Z,81.71
2022-12-05T22:59:40.724Z,81.44
2022-12-05T23:02:09.155Z,81.16
2022-12-05T23:04:36.135Z,80.76
2022-12-05T23:07:03.104Z,81.85
2022-12-05T23:09:30.095Z,80.65
2022-12-05T23:11:57.159Z,81.36
2022-12-05T23:14:24.335Z,81.18
2022-12-05T23:16:51.338Z,81.22
2022-12-05T23:19:18.304Z,81.78
2022-12-05T23:21:45.475Z,81.36
2022-12-05T23:24:13.775Z,81.36
2022-12-05T23:26:42.285Z,80.74
2022-12-05T23:29:09.485Z,81.09
2022-12-05T23:31:36.780Z,81.83
2022-12-05T23:34:04.311Z,80.44
2022-12-05T23:36:32.547Z,80.52
2022-12-05T23:39:00.080Z,80.49
2022-12-05T23:41:27.735Z,80.87
2022-12-05T23:43:55.073Z,81.28
2022-12-05T23:46:23.424Z,80.83
2022-12-05T23:48:51.078Z,79.55
2022-12-05T23:51:19.545Z,80.31
2022-12-05T23:53:47.871Z,81.05
2022-12-05T23:56:16.685Z,81.35
2022-12-05T23:58:44.114Z,81.38
